sensor_id;sensor_type;location;lat;lon;timestamp;P1;durP1;ratioP1;P2;durP2;ratioP2
41480;SDS011;27217;51.220;5.308;2023-02-01T00:02:18;0.00;;;0.00;;
41480;SDS011;27217;51.220;5.308;2023-02-01T00:04:44;0.20;;;0.20;;
41480;SDS011;27217;51.220;5.308;2023-02-01T00:07:09;0.00;;;0.00;;
41480;SDS011;27217;51.220;5.308;2023-02-01T00:09:35;0.40;;;0.40;;
41480;SDS011;27217;51.220;5.308;2023-02-01T00:12:01;0.08;;;0.08;;
41480;SDS011;27217;51.220;5.308;2023-02-01T00:14:28;0.32;;;0.32;;
41480;SDS011;27217;51.220;5.308;2023-02-01T00:16:55;0.00;;;0.00;;
41480;SDS011;27217;51.220;5.308;2023-02-01T00:19:20;0.00;;;0.00;;
41480;SDS011;27217;51.220;5.308;2023-02-01T00:21:46;1.58;;;1.42;;
41480;SDS011;27217;51.220;5.308;2023-02-01T00:24:12;0.00;;;0.00;;
41480;SDS011;27217;51.220;5.308;2023-02-01T00:26:41;0.17;;;0.17;;
41480;SDS011;27217;51.220;5.308;2023-02-01T00:29:10;0.40;;;0.40;;
41480;SDS011;27217;51.220;5.308;2023-02-01T00:31:41;0.30;;;0.30;;
41480;SDS011;27217;51.220;5.308;2023-02-01T00:34:09;0.00;;;0.00;;
41480;SDS011;27217;51.220;5.308;2023-02-01T00:36:38;0.00;;;0.00;;
41480;SDS011;27217;51.220;5.308;2023-02-01T00:39:04;0.43;;;0.30;;
41480;SDS011;27217;51.220;5.308;2023-02-01T00:41:30;1.15;;;0.80;;
41480;SDS011;27217;51.220;5.308;2023-02-01T00:43:55;0.03;;;0.03;;
41480;SDS011;27217;51.220;5.308;2023-02-01T00:46:22;0.20;;;0.20;;
41480;SDS011;27217;51.220;5.308;2023-02-01T00:48:48;6.53;;;2.85;;
41480;SDS011;27217;51.220;5.308;2023-02-01T00:51:16;0.85;;;0.30;;
41480;SDS011;27217;51.220;5.308;2023-02-01T00:53:45;0.00;;;0.00;;
41480;SDS011;27217;51.220;5.308;2023-02-01T00:56:11;1.67;;;1.23;;
41480;SDS011;27217;51.220;5.308;2023-02-01T00:58:38;0.20;;;0.20;;
41480;SDS011;27217;51.220;5.308;2023-02-01T01:01:05;0.52;;;0.52;;
41480;SDS011;27217;51.220;5.308;2023-02-01T01:03:32;25.67;;;6.13;;
41480;SDS011;27217;51.220;5.308;2023-02-01T01:06:01;42.90;;;6.95;;
41480;SDS011;27217;51.220;5.308;2023-02-01T01:08:30;27.77;;;6.25;;
41480;SDS011;27217;51.220;5.308;2023-02-01T01:10:56;37.97;;;7.18;;
41480;SDS011;27217;51.220;5.308;2023-02-01T01:13:22;38.95;;;6.88;;
41480;SDS011;27217;51.220;5.308;2023-02-01T01:15:48;36.35;;;7.00;;
41480;SDS011;27217;51.220;5.308;2023-02-01T01:18:14;33.90;;;7.15;;
41480;SDS011;27217;51.220;5.308;2023-02-01T01:20:40;44.45;;;9.38;;
41480;SDS011;27217;51.220;5.308;2023-02-01T01:23:07;37.85;;;7.13;;
41480;SDS011;27217;51.220;5.308;2023-02-01T01:25:37;34.40;;;6.47;;
41480;SDS011;27217;51.220;5.308;2023-02-01T01:28:04;31.45;;;8.25;;
41480;SDS011;27217;51.220;5.308;2023-02-01T01:30:30;39.47;;;8.10;;
41480;SDS011;27217;51.220;5.308;2023-02-01T01:32:56;48.17;;;8.15;;
41480;SDS011;27217;51.220;5.308;2023-02-01T01:35:22;30.92;;;6.72;;
41480;SDS011;27217;51.220;5.308;2023-02-01T01:37:48;32.22;;;6.18;;
41480;SDS011;27217;51.220;5.308;2023-02-01T01:40:14;46.17;;;7.25;;
41480;SDS011;27217;51.220;5.308;2023-02-01T01:42:41;38.03;;;7.55;;
41480;SDS011;27217;51.220;5.308;2023-02-01T01:47:50;38.38;;;9.02;;
41480;SDS011;27217;51.220;5.308;2023-02-01T01:50:20;49.83;;;8.60;;
41480;SDS011;27217;51.220;5.308;2023-02-01T01:53:08;44.08;;;8.55;;
41480;SDS011;27217;51.220;5.308;2023-02-01T01:55:38;45.95;;;7.28;;
41480;SDS011;27217;51.220;5.308;2023-02-01T01:58:11;36.63;;;7.40;;
41480;SDS011;27217;51.220;5.308;2023-02-01T02:00:41;36.10;;;8.35;;
41480;SDS011;27217;51.220;5.308;2023-02-01T02:03:11;37.67;;;7.72;;
41480;SDS011;27217;51.220;5.308;2023-02-01T02:05:43;37.85;;;6.45;;
41480;SDS011;27217;51.220;5.308;2023-02-01T02:08:09;39.80;;;6.97;;
41480;SDS011;27217;51.220;5.308;2023-02-01T02:10:37;32.60;;;6.68;;
41480;SDS011;27217;51.220;5.308;2023-02-01T02:13:21;27.73;;;7.32;;
41480;SDS011;27217;51.220;5.308;2023-02-01T02:16:02;41.17;;;8.20;;
41480;SDS011;27217;51.220;5.308;2023-02-01T02:29:37;31.13;;;6.57;;
41480;SDS011;27217;51.220;5.308;2023-02-01T02:37:45;49.33;;;7.32;;
41480;SDS011;27217;51.220;5.308;2023-02-01T02:43:22;29.80;;;5.93;;
41480;SDS011;27217;51.220;5.308;2023-02-01T02:46:24;23.85;;;4.93;;
41480;SDS011;27217;51.220;5.308;2023-02-01T02:52:03;35.95;;;6.82;;
41480;SDS011;27217;51.220;5.308;2023-02-01T02:54:52;28.38;;;6.22;;
41480;SDS011;27217;51.220;5.308;2023-02-01T02:57:25;37.00;;;6.28;;
41480;SDS011;27217;51.220;5.308;2023-02-01T03:00:15;41.70;;;7.20;;
41480;SDS011;27217;51.220;5.308;2023-02-01T03:03:03;40.33;;;7.43;;
41480;SDS011;27217;51.220;5.308;2023-02-01T03:05:48;24.48;;;5.43;;
41480;SDS011;27217;51.220;5.308;2023-02-01T03:08:25;31.63;;;6.32;;
41480;SDS011;27217;51.220;5.308;2023-02-01T03:11:26;25.02;;;5.68;;
41480;SDS011;27217;51.220;5.308;2023-02-01T03:13:52;39.78;;;7.55;;
41480;SDS011;27217;51.220;5.308;2023-02-01T03:16:25;36.65;;;5.35;;
41480;SDS011;27217;51.220;5.308;2023-02-01T03:22:07;33.28;;;7.70;;
41480;SDS011;27217;51.220;5.308;2023-02-01T03:24:58;31.00;;;8.18;;
41480;SDS011;27217;51.220;5.308;2023-02-01T03:30:12;26.73;;;5.82;;
41480;SDS011;27217;51.220;5.308;2023-02-01T03:32:50;24.95;;;5.25;;
41480;SDS011;27217;51.220;5.308;2023-02-01T03:35:27;29.08;;;4.65;;
41480;SDS011;27217;51.220;5.308;2023-02-01T03:46:38;35.60;;;5.30;;
41480;SDS011;27217;51.220;5.308;2023-02-01T03:49:11;40.80;;;4.90;;
41480;SDS011;27217;51.220;5.308;2023-02-01T03:51:43;35.50;;;5.70;;
41480;SDS011;27217;51.220;5.308;2023-02-01T03:54:10;35.83;;;5.68;;
41480;SDS011;27217;51.220;5.308;2023-02-01T03:56:41;36.00;;;5.40;;
41480;SDS011;27217;51.220;5.308;2023-02-01T03:59:10;25.20;;;4.50;;
41480;SDS011;27217;51.220;5.308;2023-02-01T04:01:36;40.25;;;4.70;;
41480;SDS011;27217;51.220;5.308;2023-02-01T04:04:02;25.83;;;3.85;;
41480;SDS011;27217;51.220;5.308;2023-02-01T04:06:29;31.60;;;4.32;;
41480;SDS011;27217;51.220;5.308;2023-02-01T04:08:55;33.05;;;4.45;;
41480;SDS011;27217;51.220;5.308;2023-02-01T04:11:21;31.70;;;4.45;;
41480;SDS011;27217;51.220;5.308;2023-02-01T04:13:47;29.65;;;4.68;;
41480;SDS011;27217;51.220;5.308;2023-02-01T04:16:12;28.73;;;5.13;;
41480;SDS011;27217;51.220;5.308;2023-02-01T04:18:38;39.92;;;6.63;;
41480;SDS011;27217;51.220;5.308;2023-02-01T04:21:04;43.75;;;4.25;;
41480;SDS011;27217;51.220;5.308;2023-02-01T04:23:30;32.85;;;4.15;;
41480;SDS011;27217;51.220;5.308;2023-02-01T04:26:00;29.45;;;4.30;;
41480;SDS011;27217;51.220;5.308;2023-02-01T04:28:27;23.17;;;3.78;;
41480;SDS011;27217;51.220;5.308;2023-02-01T04:30:54;28.55;;;4.05;;
41480;SDS011;27217;51.220;5.308;2023-02-01T04:33:20;27.58;;;4.65;;
41480;SDS011;27217;51.220;5.308;2023-02-01T04:35:47;32.38;;;4.95;;
41480;SDS011;27217;51.220;5.308;2023-02-01T04:38:12;25.42;;;4.72;;
41480;SDS011;27217;51.220;5.308;2023-02-01T04:40:38;19.70;;;4.00;;
41480;SDS011;27217;51.220;5.308;2023-02-01T04:43:04;25.90;;;5.45;;
41480;SDS011;27217;51.220;5.308;2023-02-01T04:45:30;39.25;;;4.40;;
41480;SDS011;27217;51.220;5.308;2023-02-01T04:47:56;24.27;;;4.43;;
41480;SDS011;27217;51.220;5.308;2023-02-01T04:50:23;26.20;;;4.03;;
41480;SDS011;27217;51.220;5.308;2023-02-01T04:52:50;33.97;;;4.80;;
41480;SDS011;27217;51.220;5.308;2023-02-01T04:55:16;28.48;;;3.13;;
41480;SDS011;27217;51.220;5.308;2023-02-01T04:57:42;34.30;;;5.30;;
41480;SDS011;27217;51.220;5.308;2023-02-01T05:00:09;24.95;;;3.50;;
41480;SDS011;27217;51.220;5.308;2023-02-01T05:02:36;16.08;;;3.70;;
41480;SDS011;27217;51.220;5.308;2023-02-01T05:05:02;29.75;;;3.28;;
41480;SDS011;27217;51.220;5.308;2023-02-01T05:07:28;34.47;;;4.22;;
41480;SDS011;27217;51.220;5.308;2023-02-01T05:09:54;27.10;;;3.85;;
41480;SDS011;27217;51.220;5.308;2023-02-01T05:12:20;23.13;;;3.90;;
41480;SDS011;27217;51.220;5.308;2023-02-01T05:15:05;20.58;;;3.40;;
41480;SDS011;27217;51.220;5.308;2023-02-01T05:17:31;23.00;;;4.30;;
41480;SDS011;27217;51.220;5.308;2023-02-01T05:19:57;26.88;;;3.00;;
41480;SDS011;27217;51.220;5.308;2023-02-01T05:22:22;24.17;;;4.68;;
41480;SDS011;27217;51.220;5.308;2023-02-01T05:24:49;40.53;;;5.15;;
41480;SDS011;27217;51.220;5.308;2023-02-01T05:27:14;24.48;;;4.65;;
41480;SDS011;27217;51.220;5.308;2023-02-01T05:29:40;27.42;;;3.92;;
41480;SDS011;27217;51.220;5.308;2023-02-01T05:32:06;30.45;;;7.00;;
41480;SDS011;27217;51.220;5.308;2023-02-01T05:34:34;26.85;;;4.65;;
41480;SDS011;27217;51.220;5.308;2023-02-01T05:37:00;36.35;;;5.95;;
41480;SDS011;27217;51.220;5.308;2023-02-01T05:39:25;34.28;;;4.45;;
41480;SDS011;27217;51.220;5.308;2023-02-01T05:41:51;30.08;;;4.00;;
41480;SDS011;27217;51.220;5.308;2023-02-01T05:44:18;37.90;;;4.60;;
41480;SDS011;27217;51.220;5.308;2023-02-01T05:46:44;35.42;;;4.65;;
41480;SDS011;27217;51.220;5.308;2023-02-01T05:49:09;32.67;;;4.38;;
41480;SDS011;27217;51.220;5.308;2023-02-01T05:51:35;25.52;;;4.93;;
41480;SDS011;27217;51.220;5.308;2023-02-01T05:54:01;37.20;;;4.95;;
41480;SDS011;27217;51.220;5.308;2023-02-01T05:56:27;28.20;;;3.90;;
41480;SDS011;27217;51.220;5.308;2023-02-01T05:58:53;29.88;;;5.10;;
41480;SDS011;27217;51.220;5.308;2023-02-01T06:01:18;22.25;;;3.35;;
41480;SDS011;27217;51.220;5.308;2023-02-01T06:03:44;32.97;;;6.43;;
41480;SDS011;27217;51.220;5.308;2023-02-01T06:06:10;29.60;;;6.30;;
41480;SDS011;27217;51.220;5.308;2023-02-01T06:08:36;27.20;;;4.43;;
41480;SDS011;27217;51.220;5.308;2023-02-01T06:11:05;36.67;;;4.28;;
41480;SDS011;27217;51.220;5.308;2023-02-01T06:13:32;48.55;;;5.60;;
41480;SDS011;27217;51.220;5.308;2023-02-01T06:15:58;28.10;;;3.67;;
41480;SDS011;27217;51.220;5.308;2023-02-01T06:18:24;46.95;;;4.70;;
41480;SDS011;27217;51.220;5.308;2023-02-01T06:20:52;28.33;;;5.15;;
41480;SDS011;27217;51.220;5.308;2023-02-01T06:23:21;45.22;;;5.82;;
41480;SDS011;27217;51.220;5.308;2023-02-01T06:25:52;35.80;;;4.57;;
41480;SDS011;27217;51.220;5.308;2023-02-01T06:28:18;35.28;;;6.70;;
41480;SDS011;27217;51.220;5.308;2023-02-01T06:30:45;45.67;;;6.15;;
41480;SDS011;27217;51.220;5.308;2023-02-01T06:33:14;21.45;;;4.97;;
41480;SDS011;27217;51.220;5.308;2023-02-01T06:35:40;33.67;;;5.68;;
41480;SDS011;27217;51.220;5.308;2023-02-01T06:38:07;47.03;;;8.55;;
41480;SDS011;27217;51.220;5.308;2023-02-01T06:40:33;34.08;;;4.88;;
41480;SDS011;27217;51.220;5.308;2023-02-01T06:43:04;30.45;;;5.80;;
41480;SDS011;27217;51.220;5.308;2023-02-01T06:45:31;40.22;;;6.43;;
41480;SDS011;27217;51.220;5.308;2023-02-01T06:47:58;33.85;;;4.78;;
41480;SDS011;27217;51.220;5.308;2023-02-01T06:50:24;29.08;;;3.65;;
41480;SDS011;27217;51.220;5.308;2023-02-01T06:52:50;24.65;;;5.22;;
41480;SDS011;27217;51.220;5.308;2023-02-01T06:55:16;23.00;;;3.60;;
41480;SDS011;27217;51.220;5.308;2023-02-01T06:57:42;30.55;;;3.63;;
41480;SDS011;27217;51.220;5.308;2023-02-01T07:00:08;39.05;;;5.75;;
41480;SDS011;27217;51.220;5.308;2023-02-01T07:02:35;30.98;;;3.72;;
41480;SDS011;27217;51.220;5.308;2023-02-01T07:05:01;39.03;;;4.18;;
41480;SDS011;27217;51.220;5.308;2023-02-01T07:07:28;20.48;;;3.75;;
41480;SDS011;27217;51.220;5.308;2023-02-01T07:09:54;19.27;;;3.50;;
41480;SDS011;27217;51.220;5.308;2023-02-01T07:12:20;26.40;;;4.55;;
41480;SDS011;27217;51.220;5.308;2023-02-01T07:14:46;37.30;;;4.57;;
41480;SDS011;27217;51.220;5.308;2023-02-01T07:17:12;30.05;;;4.05;;
41480;SDS011;27217;51.220;5.308;2023-02-01T07:19:38;28.92;;;4.97;;
41480;SDS011;27217;51.220;5.308;2023-02-01T07:22:03;20.80;;;2.97;;
41480;SDS011;27217;51.220;5.308;2023-02-01T07:24:29;27.45;;;4.82;;
41480;SDS011;27217;51.220;5.308;2023-02-01T07:26:56;27.23;;;3.80;;
41480;SDS011;27217;51.220;5.308;2023-02-01T07:29:21;27.77;;;5.32;;
41480;SDS011;27217;51.220;5.308;2023-02-01T07:31:47;36.40;;;4.82;;
41480;SDS011;27217;51.220;5.308;2023-02-01T07:34:13;29.83;;;5.05;;
41480;SDS011;27217;51.220;5.308;2023-02-01T07:36:38;41.50;;;4.30;;
41480;SDS011;27217;51.220;5.308;2023-02-01T07:39:04;25.35;;;4.13;;
41480;SDS011;27217;51.220;5.308;2023-02-01T07:41:30;27.17;;;4.10;;
41480;SDS011;27217;51.220;5.308;2023-02-01T07:43:55;22.42;;;4.30;;
41480;SDS011;27217;51.220;5.308;2023-02-01T07:46:21;25.40;;;4.38;;
41480;SDS011;27217;51.220;5.308;2023-02-01T07:48:48;31.08;;;4.85;;
41480;SDS011;27217;51.220;5.308;2023-02-01T07:51:15;28.83;;;4.15;;
41480;SDS011;27217;51.220;5.308;2023-02-01T07:53:42;29.92;;;5.45;;
41480;SDS011;27217;51.220;5.308;2023-02-01T07:56:14;21.42;;;3.03;;
41480;SDS011;27217;51.220;5.308;2023-02-01T07:58:51;26.35;;;4.10;;
41480;SDS011;27217;51.220;5.308;2023-02-01T08:01:23;29.42;;;5.20;;
41480;SDS011;27217;51.220;5.308;2023-02-01T08:03:51;23.67;;;4.50;;
41480;SDS011;27217;51.220;5.308;2023-02-01T08:06:24;18.13;;;3.78;;
41480;SDS011;27217;51.220;5.308;2023-02-01T08:08:54;37.53;;;7.22;;
41480;SDS011;27217;51.220;5.308;2023-02-01T08:11:20;37.53;;;6.40;;
41480;SDS011;27217;51.220;5.308;2023-02-01T08:13:47;27.85;;;4.22;;
41480;SDS011;27217;51.220;5.308;2023-02-01T08:16:13;23.83;;;3.58;;
41480;SDS011;27217;51.220;5.308;2023-02-01T08:18:40;15.68;;;3.88;;
41480;SDS011;27217;51.220;5.308;2023-02-01T08:21:09;30.95;;;4.55;;
41480;SDS011;27217;51.220;5.308;2023-02-01T08:23:40;26.40;;;3.70;;
41480;SDS011;27217;51.220;5.308;2023-02-01T08:26:11;34.80;;;4.97;;
41480;SDS011;27217;51.220;5.308;2023-02-01T08:28:43;24.58;;;4.38;;
41480;SDS011;27217;51.220;5.308;2023-02-01T08:31:11;32.70;;;5.70;;
41480;SDS011;27217;51.220;5.308;2023-02-01T08:33:40;24.08;;;4.70;;
41480;SDS011;27217;51.220;5.308;2023-02-01T08:36:07;24.88;;;4.05;;
41480;SDS011;27217;51.220;5.308;2023-02-01T08:38:34;27.23;;;4.30;;
41480;SDS011;27217;51.220;5.308;2023-02-01T08:41:08;30.40;;;4.20;;
41480;SDS011;27217;51.220;5.308;2023-02-01T08:43:42;27.65;;;6.43;;
41480;SDS011;27217;51.220;5.308;2023-02-01T08:46:10;19.73;;;4.10;;
41480;SDS011;27217;51.220;5.308;2023-02-01T08:48:36;26.40;;;4.20;;
41480;SDS011;27217;51.220;5.308;2023-02-01T08:51:04;22.70;;;4.63;;
41480;SDS011;27217;51.220;5.308;2023-02-01T08:53:31;24.67;;;4.50;;
41480;SDS011;27217;51.220;5.308;2023-02-01T08:55:58;29.92;;;6.82;;
41480;SDS011;27217;51.220;5.308;2023-02-01T08:58:24;38.88;;;5.32;;
41480;SDS011;27217;51.220;5.308;2023-02-01T09:00:50;26.83;;;4.78;;
41480;SDS011;27217;51.220;5.308;2023-02-01T09:03:16;24.30;;;4.10;;
41480;SDS011;27217;51.220;5.308;2023-02-01T09:05:42;24.80;;;3.95;;
41480;SDS011;27217;51.220;5.308;2023-02-01T09:08:08;27.73;;;6.35;;
41480;SDS011;27217;51.220;5.308;2023-02-01T09:10:34;26.25;;;5.28;;
41480;SDS011;27217;51.220;5.308;2023-02-01T09:13:01;29.27;;;4.60;;
41480;SDS011;27217;51.220;5.308;2023-02-01T09:15:27;39.50;;;5.32;;
41480;SDS011;27217;51.220;5.308;2023-02-01T09:17:53;23.58;;;4.30;;
41480;SDS011;27217;51.220;5.308;2023-02-01T09:20:19;49.35;;;5.20;;
41480;SDS011;27217;51.220;5.308;2023-02-01T09:22:48;25.98;;;4.70;;
41480;SDS011;27217;51.220;5.308;2023-02-01T09:25:16;28.98;;;4.13;;
41480;SDS011;27217;51.220;5.308;2023-02-01T09:27:42;37.50;;;5.38;;
41480;SDS011;27217;51.220;5.308;2023-02-01T09:30:11;32.95;;;4.82;;
41480;SDS011;27217;51.220;5.308;2023-02-01T09:32:37;38.10;;;5.63;;
41480;SDS011;27217;51.220;5.308;2023-02-01T09:35:03;23.73;;;4.88;;
41480;SDS011;27217;51.220;5.308;2023-02-01T09:37:29;24.25;;;4.30;;
41480;SDS011;27217;51.220;5.308;2023-02-01T09:39:54;17.67;;;4.38;;
41480;SDS011;27217;51.220;5.308;2023-02-01T09:47:59;39.65;;;5.30;;
41480;SDS011;27217;51.220;5.308;2023-02-01T09:50:34;33.33;;;5.53;;
41480;SDS011;27217;51.220;5.308;2023-02-01T09:53:10;26.65;;;4.35;;
41480;SDS011;27217;51.220;5.308;2023-02-01T09:55:45;35.50;;;5.35;;
41480;SDS011;27217;51.220;5.308;2023-02-01T10:01:05;25.92;;;4.25;;
41480;SDS011;27217;51.220;5.308;2023-02-01T10:03:41;23.73;;;3.90;;
41480;SDS011;27217;51.220;5.308;2023-02-01T10:06:18;40.10;;;5.32;;
41480;SDS011;27217;51.220;5.308;2023-02-01T10:20:28;22.45;;;3.63;;
41480;SDS011;27217;51.220;5.308;2023-02-01T10:28:32;38.78;;;6.60;;
41480;SDS011;27217;51.220;5.308;2023-02-01T10:31:01;30.60;;;5.55;;
41480;SDS011;27217;51.220;5.308;2023-02-01T10:36:49;20.88;;;3.70;;
41480;SDS011;27217;51.220;5.308;2023-02-01T10:39:20;24.10;;;4.20;;
41480;SDS011;27217;51.220;5.308;2023-02-01T10:41:46;34.17;;;6.10;;
41480;SDS011;27217;51.220;5.308;2023-02-01T10:44:16;21.58;;;3.67;;
41480;SDS011;27217;51.220;5.308;2023-02-01T10:46:46;30.75;;;4.03;;
41480;SDS011;27217;51.220;5.308;2023-02-01T10:49:18;21.77;;;3.47;;
41480;SDS011;27217;51.220;5.308;2023-02-01T10:51:59;24.58;;;3.75;;
41480;SDS011;27217;51.220;5.308;2023-02-01T10:54:39;27.80;;;4.78;;
41480;SDS011;27217;51.220;5.308;2023-02-01T10:57:24;25.85;;;3.55;;
41480;SDS011;27217;51.220;5.308;2023-02-01T10:59:55;28.15;;;5.72;;
41480;SDS011;27217;51.220;5.308;2023-02-01T11:02:24;30.17;;;4.03;;
41480;SDS011;27217;51.220;5.308;2023-02-01T11:04:58;21.55;;;3.80;;
41480;SDS011;27217;51.220;5.308;2023-02-01T11:07:37;28.88;;;4.28;;
41480;SDS011;27217;51.220;5.308;2023-02-01T11:10:33;31.50;;;4.50;;
41480;SDS011;27217;51.220;5.308;2023-02-01T11:13:04;28.75;;;3.97;;
41480;SDS011;27217;51.220;5.308;2023-02-01T11:15:30;24.88;;;3.80;;
41480;SDS011;27217;51.220;5.308;2023-02-01T11:17:56;14.52;;;3.70;;
41480;SDS011;27217;51.220;5.308;2023-02-01T11:20:40;21.52;;;3.95;;
41480;SDS011;27217;51.220;5.308;2023-02-01T11:23:18;26.80;;;3.22;;
41480;SDS011;27217;51.220;5.308;2023-02-01T11:25:49;22.92;;;3.58;;
41480;SDS011;27217;51.220;5.308;2023-02-01T11:28:17;32.45;;;3.75;;
41480;SDS011;27217;51.220;5.308;2023-02-01T11:30:45;24.27;;;3.55;;
41480;SDS011;27217;51.220;5.308;2023-02-01T11:33:17;19.48;;;3.50;;
41480;SDS011;27217;51.220;5.308;2023-02-01T11:35:45;11.40;;;2.83;;
41480;SDS011;27217;51.220;5.308;2023-02-01T11:38:19;27.20;;;3.35;;
41480;SDS011;27217;51.220;5.308;2023-02-01T11:40:54;28.85;;;3.45;;
41480;SDS011;27217;51.220;5.308;2023-02-01T11:43:28;19.88;;;3.00;;
41480;SDS011;27217;51.220;5.308;2023-02-01T11:46:02;15.55;;;2.80;;
41480;SDS011;27217;51.220;5.308;2023-02-01T11:48:30;27.58;;;3.40;;
41480;SDS011;27217;51.220;5.308;2023-02-01T11:53:36;21.05;;;2.85;;
41480;SDS011;27217;51.220;5.308;2023-02-01T11:59:07;17.75;;;3.03;;
41480;SDS011;27217;51.220;5.308;2023-02-01T12:02:02;18.02;;;2.67;;
41480;SDS011;27217;51.220;5.308;2023-02-01T12:04:57;28.88;;;3.25;;
41480;SDS011;27217;51.220;5.308;2023-02-01T12:21:23;13.02;;;2.28;;
41480;SDS011;27217;51.220;5.308;2023-02-01T12:37:47;10.63;;;2.27;;
41480;SDS011;27217;51.220;5.308;2023-02-01T12:43:06;14.82;;;2.42;;
41480;SDS011;27217;51.220;5.308;2023-02-01T12:45:49;20.23;;;3.17;;
41480;SDS011;27217;51.220;5.308;2023-02-01T12:50:50;16.33;;;3.00;;
41480;SDS011;27217;51.220;5.308;2023-02-01T12:55:56;21.08;;;2.72;;
41480;SDS011;27217;51.220;5.308;2023-02-01T12:58:38;16.60;;;2.38;;
41480;SDS011;27217;51.220;5.308;2023-02-01T13:01:15;21.90;;;2.65;;
41480;SDS011;27217;51.220;5.308;2023-02-01T13:03:57;13.32;;;1.98;;
41480;SDS011;27217;51.220;5.308;2023-02-01T13:09:37;15.90;;;2.15;;
41480;SDS011;27217;51.220;5.308;2023-02-01T13:12:16;19.65;;;3.30;;
41480;SDS011;27217;51.220;5.308;2023-02-01T13:15:05;13.98;;;2.72;;
41480;SDS011;27217;51.220;5.308;2023-02-01T13:17:35;21.33;;;2.63;;
41480;SDS011;27217;51.220;5.308;2023-02-01T13:22:53;20.58;;;2.38;;
41480;SDS011;27217;51.220;5.308;2023-02-01T13:25:37;12.70;;;3.00;;
41480;SDS011;27217;51.220;5.308;2023-02-01T13:29:04;18.15;;;2.40;;
41480;SDS011;27217;51.220;5.308;2023-02-01T13:44:29;15.13;;;2.05;;
41480;SDS011;27217;51.220;5.308;2023-02-01T13:47:02;22.00;;;3.17;;
41480;SDS011;27217;51.220;5.308;2023-02-01T13:49:39;13.38;;;1.98;;
41480;SDS011;27217;51.220;5.308;2023-02-01T13:52:06;18.52;;;2.45;;
41480;SDS011;27217;51.220;5.308;2023-02-01T13:54:46;15.18;;;2.90;;
41480;SDS011;27217;51.220;5.308;2023-02-01T13:57:34;20.75;;;3.28;;
41480;SDS011;27217;51.220;5.308;2023-02-01T14:00:22;16.52;;;2.28;;
41480;SDS011;27217;51.220;5.308;2023-02-01T14:13:28;12.50;;;2.60;;
41480;SDS011;27217;51.220;5.308;2023-02-01T14:23:59;21.48;;;3.53;;
41480;SDS011;27217;51.220;5.308;2023-02-01T14:26:40;15.38;;;2.58;;
41480;SDS011;27217;51.220;5.308;2023-02-01T14:39:28;19.17;;;3.00;;
41480;SDS011;27217;51.220;5.308;2023-02-01T14:41:59;31.20;;;3.42;;
41480;SDS011;27217;51.220;5.308;2023-02-01T14:44:29;21.52;;;2.75;;
41480;SDS011;27217;51.220;5.308;2023-02-01T14:47:06;10.75;;;2.25;;
41480;SDS011;27217;51.220;5.308;2023-02-01T14:49:34;17.77;;;2.53;;
41480;SDS011;27217;51.220;5.308;2023-02-01T14:52:32;24.88;;;2.63;;
41480;SDS011;27217;51.220;5.308;2023-02-01T14:55:06;20.60;;;2.50;;
41480;SDS011;27217;51.220;5.308;2023-02-01T14:57:42;23.33;;;3.67;;
41480;SDS011;27217;51.220;5.308;2023-02-01T15:00:18;19.13;;;3.08;;
41480;SDS011;27217;51.220;5.308;2023-02-01T15:02:48;14.43;;;2.55;;
41480;SDS011;27217;51.220;5.308;2023-02-01T15:05:25;17.23;;;2.55;;
41480;SDS011;27217;51.220;5.308;2023-02-01T15:07:51;16.45;;;2.45;;
41480;SDS011;27217;51.220;5.308;2023-02-01T15:10:18;13.80;;;3.65;;
41480;SDS011;27217;51.220;5.308;2023-02-01T15:12:47;21.08;;;3.67;;
41480;SDS011;27217;51.220;5.308;2023-02-01T15:17:50;19.60;;;2.72;;
41480;SDS011;27217;51.220;5.308;2023-02-01T15:20:22;26.48;;;3.08;;
41480;SDS011;27217;51.220;5.308;2023-02-01T15:25:24;24.27;;;4.28;;
41480;SDS011;27217;51.220;5.308;2023-02-01T15:27:50;15.32;;;2.00;;
41480;SDS011;27217;51.220;5.308;2023-02-01T15:30:24;17.17;;;3.10;;
41480;SDS011;27217;51.220;5.308;2023-02-01T15:33:03;17.67;;;3.20;;
41480;SDS011;27217;51.220;5.308;2023-02-01T15:38:32;28.73;;;3.15;;
41480;SDS011;27217;51.220;5.308;2023-02-01T15:43:27;11.20;;;2.58;;
41480;SDS011;27217;51.220;5.308;2023-02-01T15:46:02;19.80;;;3.00;;
41480;SDS011;27217;51.220;5.308;2023-02-01T15:48:36;16.58;;;3.55;;
41480;SDS011;27217;51.220;5.308;2023-02-01T15:51:11;17.90;;;3.13;;
41480;SDS011;27217;51.220;5.308;2023-02-01T15:53:50;17.73;;;2.70;;
41480;SDS011;27217;51.220;5.308;2023-02-01T15:56:38;21.95;;;2.80;;
41480;SDS011;27217;51.220;5.308;2023-02-01T15:59:12;16.10;;;2.90;;
41480;SDS011;27217;51.220;5.308;2023-02-01T16:01:42;17.77;;;2.50;;
41480;SDS011;27217;51.220;5.308;2023-02-01T16:04:19;17.77;;;2.70;;
41480;SDS011;27217;51.220;5.308;2023-02-01T16:06:51;21.45;;;2.65;;
41480;SDS011;27217;51.220;5.308;2023-02-01T16:09:24;8.75;;;1.45;;
41480;SDS011;27217;51.220;5.308;2023-02-01T16:12:00;26.02;;;3.25;;
41480;SDS011;27217;51.220;5.308;2023-02-01T16:14:28;13.40;;;2.70;;
41480;SDS011;27217;51.220;5.308;2023-02-01T16:16:57;28.15;;;3.22;;
41480;SDS011;27217;51.220;5.308;2023-02-01T16:19:23;21.60;;;3.47;;
41480;SDS011;27217;51.220;5.308;2023-02-01T16:21:53;21.08;;;3.47;;
41480;SDS011;27217;51.220;5.308;2023-02-01T16:24:19;23.17;;;3.72;;
41480;SDS011;27217;51.220;5.308;2023-02-01T16:26:48;24.13;;;3.95;;
41480;SDS011;27217;51.220;5.308;2023-02-01T16:29:13;17.20;;;2.85;;
41480;SDS011;27217;51.220;5.308;2023-02-01T16:31:41;20.63;;;3.45;;
41480;SDS011;27217;51.220;5.308;2023-02-01T16:34:14;17.98;;;3.35;;
41480;SDS011;27217;51.220;5.308;2023-02-01T16:36:42;14.70;;;3.03;;
41480;SDS011;27217;51.220;5.308;2023-02-01T16:39:10;36.22;;;5.03;;
41480;SDS011;27217;51.220;5.308;2023-02-01T16:41:37;24.42;;;4.03;;
41480;SDS011;27217;51.220;5.308;2023-02-01T16:44:04;20.50;;;2.63;;
41480;SDS011;27217;51.220;5.308;2023-02-01T16:46:32;23.23;;;3.70;;
41480;SDS011;27217;51.220;5.308;2023-02-01T16:49:00;20.08;;;3.17;;
41480;SDS011;27217;51.220;5.308;2023-02-01T16:51:28;22.40;;;2.97;;
41480;SDS011;27217;51.220;5.308;2023-02-01T16:53:57;23.27;;;4.17;;
41480;SDS011;27217;51.220;5.308;2023-02-01T16:56:33;24.58;;;3.08;;
41480;SDS011;27217;51.220;5.308;2023-02-01T16:59:00;25.35;;;3.83;;
41480;SDS011;27217;51.220;5.308;2023-02-01T17:01:26;17.55;;;3.28;;
41480;SDS011;27217;51.220;5.308;2023-02-01T17:03:53;19.98;;;2.97;;
41480;SDS011;27217;51.220;5.308;2023-02-01T17:06:21;20.75;;;3.05;;
41480;SDS011;27217;51.220;5.308;2023-02-01T17:08:53;17.23;;;3.47;;
41480;SDS011;27217;51.220;5.308;2023-02-01T17:11:22;18.20;;;3.03;;
41480;SDS011;27217;51.220;5.308;2023-02-01T17:13:49;16.55;;;3.45;;
41480;SDS011;27217;51.220;5.308;2023-02-01T17:16:19;17.02;;;3.80;;
41480;SDS011;27217;51.220;5.308;2023-02-01T17:18:54;14.55;;;2.47;;
41480;SDS011;27217;51.220;5.308;2023-02-01T17:21:21;26.95;;;3.67;;
41480;SDS011;27217;51.220;5.308;2023-02-01T17:23:48;21.38;;;3.05;;
41480;SDS011;27217;51.220;5.308;2023-02-01T17:26:14;23.35;;;3.38;;
41480;SDS011;27217;51.220;5.308;2023-02-01T17:28:40;23.20;;;3.58;;
41480;SDS011;27217;51.220;5.308;2023-02-01T17:31:08;24.25;;;3.20;;
41480;SDS011;27217;51.220;5.308;2023-02-01T17:33:42;16.95;;;3.30;;
41480;SDS011;27217;51.220;5.308;2023-02-01T17:36:10;23.92;;;3.53;;
41480;SDS011;27217;51.220;5.308;2023-02-01T17:38:54;24.33;;;3.15;;
41480;SDS011;27217;51.220;5.308;2023-02-01T17:41:21;24.55;;;4.10;;
41480;SDS011;27217;51.220;5.308;2023-02-01T17:43:47;14.85;;;2.60;;